Huvudsida
METAR-TAF:

METAR-TAF

Flygplatser :

Auckland Airport

Auckland, Nya Zeeland

latitud: 37-01S, longitud: 174-48E, höjd: 7 m

Aktuellt väderrapport

Denna rapport gjordes för 29 minuter sedan, klockan 13:00 UTC
Vind 3 kt från sydost
Temperatur 10°C
Fuktighet 87%
Tryck 1032 hPa
Sikt 10 km eller mer

METAR: NZAA 151300Z AUTO 13003KT 9999 NCD 10/08 Q1032 NOSIG

Tid: 02:29 (13:29 UTC)

Väderprognos

Denna rapport gjordes för 2 timmar och 27 minuter sedan, klockan 11:02 UTC
Prognos gäller från 15 kl. 12 UTC till 16 kl. 12 UTC
Vind 5 kt från syd
Sikt 10 km eller mer
Spridda moln på en höjd av 2500 ft
Blir
från 15 kl. 22 UTC till 16 kl. 00 UTC
Vind 15 kt från sydväst

TAF: NZAA 151102Z 1512/1612 18005KT 9999 SCT025 BECMG 1522/1600 22015KT

Aktuella väderrapporter och prognoser från 4000 flygplatser (METAR- och TAF-rapporter).

De tillgängliga stationerna syns som gula och röda prickar på kartan.

För musen över prickarna för att se namnen på stationerna.

Klicka sedan för att få väderrapporter och prognoser.

För att ändra kartan: Klicka på de gröna knapparna med ett svart kors på för att zooma in; den gröna knappen med ett streck på för att zooma ut; eller på de gröna pilarna för angränsande kartor.


METAR-TAF: